CST357C KSAN-KFAT
Flight info
| Callsign | CST357C |
|---|---|
| Flight time | 0h 51m |
| Altitude | 32000 |
| Route | PADRZ2 EHF TTE ALTTA9 |
| Aircraft | A320/M-SDE3FGHIRWY/LB1 |
Departure
| Time | 2026-04-20 19:47 |
|---|---|
| Airport | San Diego International Airport (KSAN) |
Arrival
| Time | 2026-04-20 20:38 |
|---|---|
| Airport | Fresno Yosemite International Airport (KFAT) |
| Time | Latitude | Longitude | Altitude | Speed | Heading |
|---|---|---|---|---|---|
| 2026-04-20 19:27 | 32.73325 | -117.19605 | 22 ft | 0 kts | 197° |
| 2026-04-20 19:39 | 32.73336 | -117.19601 | 20 ft | 4 kts | 197° |
| 2026-04-20 19:39 | 32.73362 | -117.19591 | 22 ft | 4 kts | 197° |
| 2026-04-20 19:39 | 32.73383 | -117.19584 | 24 ft | 4 kts | 190° |
| 2026-04-20 19:40 | 32.73403 | -117.19588 | 24 ft | 4 kts | 120° |
| 2026-04-20 19:40 | 32.73411 | -117.19614 | 25 ft | 2 kts | 106° |
| 2026-04-20 19:40 | 32.73412 | -117.19617 | 24 ft | 0 kts | 106° |
| 2026-04-20 19:42 | 32.73412 | -117.19616 | 24 ft | 1 kts | 106° |
| 2026-04-20 19:43 | 32.73396 | -117.19549 | 24 ft | 17 kts | 106° |
| 2026-04-20 19:43 | 32.73355 | -117.19382 | 22 ft | 23 kts | 106° |
| 2026-04-20 19:43 | 32.73306 | -117.19184 | 20 ft | 26 kts | 106° |
| 2026-04-20 19:43 | 32.73255 | -117.18971 | 24 ft | 28 kts | 106° |
| 2026-04-20 19:44 | 32.73200 | -117.18747 | 40 ft | 27 kts | 105° |
| 2026-04-20 19:44 | 32.73148 | -117.18524 | 23 ft | 27 kts | 105° |
| 2026-04-20 19:44 | 32.73096 | -117.18304 | 23 ft | 29 kts | 106° |
| 2026-04-20 19:44 | 32.73035 | -117.18066 | 20 ft | 27 kts | 107° |
| 2026-04-20 19:45 | 32.72985 | -117.17858 | 21 ft | 26 kts | 105° |
| 2026-04-20 19:45 | 32.72958 | -117.17681 | 19 ft | 9 kts | 73° |
| 2026-04-20 19:45 | 32.72960 | -117.17670 | 19 ft | 1 kts | 73° |
| 2026-04-20 19:45 | 32.72980 | -117.17600 | 21 ft | 12 kts | 63° |
| 2026-04-20 19:46 | 32.73028 | -117.17620 | 21 ft | 10 kts | 310° |
| 2026-04-20 19:46 | 32.73053 | -117.17712 | 20 ft | 14 kts | 285° |
| 2026-04-20 19:46 | 32.73123 | -117.18006 | 18 ft | 71 kts | 286° |
| 2026-04-20 19:46 | 32.73319 | -117.18805 | 20 ft | 128 kts | 286° |
| 2026-04-20 19:47 | 32.73602 | -117.19983 | 136 ft | 160 kts | 284° |
| 2026-04-20 19:47 | 32.73931 | -117.21253 | 809 ft | 161 kts | 287° |
| 2026-04-20 19:47 | 32.74277 | -117.22526 | 1466 ft | 166 kts | 287° |
| 2026-04-20 19:47 | 32.74847 | -117.23809 | 1767 ft | 188 kts | 306° |
| 2026-04-20 19:48 | 32.75692 | -117.25081 | 2088 ft | 209 kts | 308° |
| 2026-04-20 19:48 | 32.76706 | -117.26501 | 2336 ft | 240 kts | 310° |
| 2026-04-20 19:48 | 32.77862 | -117.28078 | 2821 ft | 261 kts | 308° |
| 2026-04-20 19:48 | 32.78946 | -117.29833 | 3694 ft | 267 kts | 304° |
| 2026-04-20 19:49 | 32.79990 | -117.31683 | 4544 ft | 274 kts | 302° |
| 2026-04-20 19:49 | 32.81095 | -117.33560 | 5395 ft | 279 kts | 304° |
| 2026-04-20 19:49 | 32.82263 | -117.35434 | 6263 ft | 284 kts | 305° |
| 2026-04-20 19:49 | 32.83472 | -117.37321 | 7081 ft | 289 kts | 306° |
| 2026-04-20 19:50 | 32.84707 | -117.39228 | 7922 ft | 292 kts | 306° |
| 2026-04-20 19:50 | 32.85956 | -117.41152 | 8773 ft | 295 kts | 306° |
| 2026-04-20 19:50 | 32.87216 | -117.43095 | 9614 ft | 298 kts | 306° |
| 2026-04-20 19:50 | 32.88492 | -117.45067 | 10302 ft | 307 kts | 306° |
| 2026-04-20 19:51 | 32.89840 | -117.47162 | 10519 ft | 330 kts | 306° |
| 2026-04-20 19:51 | 32.91280 | -117.49409 | 10697 ft | 353 kts | 306° |
| 2026-04-20 19:51 | 32.92818 | -117.51809 | 10813 ft | 376 kts | 306° |
| 2026-04-20 19:51 | 32.94414 | -117.54295 | 11190 ft | 387 kts | 306° |
| 2026-04-20 19:52 | 32.96058 | -117.56859 | 11790 ft | 392 kts | 305° |
| 2026-04-20 19:52 | 32.97722 | -117.59451 | 12426 ft | 396 kts | 305° |
| 2026-04-20 19:52 | 32.99404 | -117.62065 | 13078 ft | 399 kts | 305° |
| 2026-04-20 19:52 | 33.01100 | -117.64708 | 13695 ft | 403 kts | 304° |
| 2026-04-20 19:53 | 33.02808 | -117.67375 | 14296 ft | 406 kts | 304° |
| 2026-04-20 19:53 | 33.04530 | -117.70067 | 14867 ft | 409 kts | 304° |
| 2026-04-20 19:53 | 33.06327 | -117.72720 | 15433 ft | 415 kts | 310° |
| 2026-04-20 19:53 | 33.08461 | -117.75074 | 15987 ft | 421 kts | 317° |
| 2026-04-20 19:54 | 33.10698 | -117.77343 | 16568 ft | 424 kts | 317° |
| 2026-04-20 19:54 | 33.12956 | -117.79636 | 17125 ft | 428 kts | 316° |
| 2026-04-20 19:54 | 33.15229 | -117.81948 | 17679 ft | 431 kts | 316° |
| 2026-04-20 19:54 | 33.17524 | -117.84282 | 18224 ft | 435 kts | 316° |
| 2026-04-20 19:55 | 33.19837 | -117.86635 | 18716 ft | 438 kts | 316° |
| 2026-04-20 19:55 | 33.22184 | -117.88984 | 19192 ft | 441 kts | 317° |
| 2026-04-20 19:55 | 33.24564 | -117.91318 | 19664 ft | 444 kts | 317° |
| 2026-04-20 19:55 | 33.26974 | -117.93651 | 20136 ft | 447 kts | 318° |
| 2026-04-20 19:56 | 33.28578 | -117.95198 | 20436 ft | 448 kts | 318° |
| 2026-04-20 19:56 | 33.31803 | -117.98309 | 21007 ft | 451 kts | 318° |
| 2026-04-20 19:56 | 33.34248 | -118.00682 | 21419 ft | 453 kts | 317° |
| 2026-04-20 19:56 | 33.36700 | -118.03075 | 21814 ft | 456 kts | 317° |
| 2026-04-20 19:57 | 33.39159 | -118.05482 | 22201 ft | 458 kts | 317° |
| 2026-04-20 19:57 | 33.41625 | -118.07905 | 22595 ft | 460 kts | 317° |
| 2026-04-20 19:57 | 33.44101 | -118.10343 | 22942 ft | 462 kts | 317° |
| 2026-04-20 19:57 | 33.46594 | -118.12797 | 23310 ft | 464 kts | 317° |
| 2026-04-20 19:58 | 33.49095 | -118.15255 | 23658 ft | 466 kts | 317° |
| 2026-04-20 19:58 | 33.51609 | -118.17724 | 23954 ft | 468 kts | 317° |
| 2026-04-20 19:58 | 33.54140 | -118.20209 | 24246 ft | 470 kts | 317° |
| 2026-04-20 19:58 | 33.56721 | -118.22643 | 24531 ft | 474 kts | 322° |
| 2026-04-20 19:59 | 33.59572 | -118.24688 | 24809 ft | 480 kts | 330° |
| 2026-04-20 19:59 | 33.62614 | -118.26382 | 25075 ft | 483 kts | 332° |
| 2026-04-20 19:59 | 33.65672 | -118.28064 | 25341 ft | 485 kts | 332° |
| 2026-04-20 19:59 | 33.68742 | -118.29752 | 25656 ft | 485 kts | 332° |
| 2026-04-20 20:00 | 33.71768 | -118.31420 | 26042 ft | 484 kts | 332° |
| 2026-04-20 20:00 | 33.74830 | -118.33109 | 26446 ft | 483 kts | 332° |
| 2026-04-20 20:00 | 33.77892 | -118.34775 | 26865 ft | 483 kts | 333° |
| 2026-04-20 20:00 | 33.80980 | -118.36377 | 27247 ft | 483 kts | 334° |
| 2026-04-20 20:01 | 33.84092 | -118.37933 | 27656 ft | 483 kts | 335° |
| 2026-04-20 20:01 | 33.87209 | -118.39461 | 28086 ft | 483 kts | 335° |
| 2026-04-20 20:01 | 33.90320 | -118.40986 | 28523 ft | 482 kts | 335° |
| 2026-04-20 20:01 | 33.93419 | -118.42524 | 28957 ft | 481 kts | 334° |
| 2026-04-20 20:02 | 33.96506 | -118.44074 | 29400 ft | 480 kts | 334° |
| 2026-04-20 20:02 | 33.99638 | -118.45497 | 29846 ft | 482 kts | 341° |
| 2026-04-20 20:02 | 34.01805 | -118.46165 | 30102 ft | 485 kts | 347° |
| 2026-04-20 20:02 | 34.06276 | -118.46925 | 30587 ft | 486 kts | 351° |
| 2026-04-20 20:03 | 34.08495 | -118.47260 | 30840 ft | 485 kts | 351° |
| 2026-04-20 20:03 | 34.11851 | -118.47766 | 31192 ft | 485 kts | 351° |
| 2026-04-20 20:03 | 34.15198 | -118.48273 | 31576 ft | 484 kts | 351° |
| 2026-04-20 20:03 | 34.18540 | -118.48786 | 31935 ft | 485 kts | 351° |
| 2026-04-20 20:04 | 34.21888 | -118.49301 | 32057 ft | 487 kts | 351° |
| 2026-04-20 20:04 | 34.28688 | -118.50350 | 32064 ft | 495 kts | 351° |
| 2026-04-20 20:05 | 34.35544 | -118.51414 | 32084 ft | 496 kts | 351° |
| 2026-04-20 20:05 | 34.42404 | -118.52476 | 32081 ft | 496 kts | 351° |
| 2026-04-20 20:06 | 34.49225 | -118.53526 | 32034 ft | 498 kts | 351° |
| 2026-04-20 20:06 | 34.56111 | -118.54588 | 32036 ft | 498 kts | 351° |
| 2026-04-20 20:07 | 34.62995 | -118.55664 | 32047 ft | 498 kts | 351° |
| 2026-04-20 20:07 | 34.69877 | -118.56740 | 32049 ft | 498 kts | 351° |
| 2026-04-20 20:08 | 34.76762 | -118.57807 | 32043 ft | 498 kts | 351° |
| 2026-04-20 20:08 | 34.83643 | -118.58875 | 32035 ft | 498 kts | 351° |
| 2026-04-20 20:09 | 34.90530 | -118.59954 | 32051 ft | 498 kts | 351° |
| 2026-04-20 20:09 | 34.97331 | -118.61244 | 32066 ft | 496 kts | 343° |
| 2026-04-20 20:10 | 35.03649 | -118.64479 | 32071 ft | 490 kts | 325° |
| 2026-04-20 20:10 | 35.09023 | -118.69513 | 32070 ft | 486 kts | 317° |
| 2026-04-20 20:11 | 35.14227 | -118.74788 | 32049 ft | 486 kts | 317° |
| 2026-04-20 20:11 | 35.19437 | -118.80069 | 32002 ft | 486 kts | 317° |
| 2026-04-20 20:12 | 35.24640 | -118.85361 | 32011 ft | 486 kts | 317° |
| 2026-04-20 20:12 | 35.29808 | -118.90630 | 32011 ft | 486 kts | 317° |
| 2026-04-20 20:13 | 35.37605 | -118.98595 | 32024 ft | 486 kts | 316° |
| 2026-04-20 20:13 | 35.42850 | -119.03837 | 32019 ft | 488 kts | 322° |
| 2026-04-20 20:14 | 35.49030 | -119.07426 | 32010 ft | 496 kts | 342° |
| 2026-04-20 20:14 | 35.52419 | -119.08233 | 32013 ft | 498 kts | 353° |
| 2026-04-20 20:14 | 35.55891 | -119.08328 | 32012 ft | 500 kts | 3° |
| 2026-04-20 20:15 | 35.62804 | -119.07177 | 32012 ft | 501 kts | 7° |
| 2026-04-20 20:15 | 35.69666 | -119.05951 | 32007 ft | 501 kts | 7° |
| 2026-04-20 20:16 | 35.76576 | -119.04711 | 32004 ft | 502 kts | 7° |
| 2026-04-20 20:16 | 35.83490 | -119.03469 | 32011 ft | 502 kts | 7° |
| 2026-04-20 20:17 | 35.90434 | -119.02990 | 32041 ft | 497 kts | 353° |
| 2026-04-20 20:17 | 35.93845 | -119.03613 | 31785 ft | 496 kts | 345° |
| 2026-04-20 20:17 | 35.97166 | -119.04786 | 30575 ft | 499 kts | 336° |
| 2026-04-20 20:18 | 36.00419 | -119.06360 | 29200 ft | 505 kts | 335° |
| 2026-04-20 20:18 | 36.03694 | -119.07956 | 27971 ft | 505 kts | 335° |
| 2026-04-20 20:18 | 36.06966 | -119.09539 | 26776 ft | 505 kts | 334° |
| 2026-04-20 20:18 | 36.10257 | -119.11118 | 25465 ft | 508 kts | 334° |
| 2026-04-20 20:19 | 36.13559 | -119.12690 | 24209 ft | 509 kts | 334° |
| 2026-04-20 20:19 | 36.16873 | -119.14261 | 22935 ft | 509 kts | 334° |
| 2026-04-20 20:19 | 36.20153 | -119.15815 | 22032 ft | 499 kts | 334° |
| 2026-04-20 20:19 | 36.23388 | -119.17351 | 20983 ft | 495 kts | 335° |
| 2026-04-20 20:20 | 36.26574 | -119.18867 | 20174 ft | 486 kts | 334° |
| 2026-04-20 20:20 | 36.29719 | -119.20372 | 19254 ft | 482 kts | 335° |
| 2026-04-20 20:20 | 36.32791 | -119.21850 | 18406 ft | 478 kts | 335° |
| 2026-04-20 20:20 | 36.35873 | -119.23336 | 17460 ft | 473 kts | 335° |
| 2026-04-20 20:21 | 36.38920 | -119.24804 | 16568 ft | 467 kts | 335° |
| 2026-04-20 20:21 | 36.41933 | -119.26255 | 15699 ft | 462 kts | 335° |
| 2026-04-20 20:21 | 36.44912 | -119.27690 | 14898 ft | 457 kts | 336° |
| 2026-04-20 20:21 | 36.47865 | -119.29110 | 14134 ft | 452 kts | 336° |
| 2026-04-20 20:22 | 36.50781 | -119.30520 | 13385 ft | 447 kts | 335° |
| 2026-04-20 20:22 | 36.53459 | -119.32347 | 12884 ft | 431 kts | 319° |
| 2026-04-20 20:22 | 36.55505 | -119.34967 | 12260 ft | 416 kts | 301° |
| 2026-04-20 20:22 | 36.56760 | -119.38134 | 11570 ft | 404 kts | 284° |
| 2026-04-20 20:23 | 36.57550 | -119.41463 | 10825 ft | 400 kts | 282° |
| 2026-04-20 20:23 | 36.58290 | -119.44772 | 10289 ft | 391 kts | 282° |
| 2026-04-20 20:23 | 36.59003 | -119.48003 | 9741 ft | 383 kts | 282° |
| 2026-04-20 20:23 | 36.59695 | -119.51169 | 9190 ft | 375 kts | 282° |
| 2026-04-20 20:24 | 36.60369 | -119.54260 | 8804 ft | 364 kts | 282° |
| 2026-04-20 20:24 | 36.61012 | -119.57203 | 8527 ft | 351 kts | 282° |
| 2026-04-20 20:24 | 36.61657 | -119.60123 | 8242 ft | 340 kts | 282° |
| 2026-04-20 20:24 | 36.62269 | -119.62881 | 7974 ft | 331 kts | 282° |
| 2026-04-20 20:25 | 36.62876 | -119.65609 | 7698 ft | 323 kts | 282° |
| 2026-04-20 20:25 | 36.63466 | -119.68269 | 7445 ft | 315 kts | 282° |
| 2026-04-20 20:25 | 36.64041 | -119.70875 | 7191 ft | 309 kts | 282° |
| 2026-04-20 20:25 | 36.64607 | -119.73452 | 6779 ft | 308 kts | 282° |
| 2026-04-20 20:26 | 36.65163 | -119.75993 | 6374 ft | 298 kts | 282° |
| 2026-04-20 20:26 | 36.65701 | -119.78441 | 5933 ft | 287 kts | 282° |
| 2026-04-20 20:26 | 36.66223 | -119.80800 | 5511 ft | 279 kts | 282° |
| 2026-04-20 20:26 | 36.66738 | -119.83127 | 5104 ft | 280 kts | 282° |
| 2026-04-20 20:27 | 36.67255 | -119.85480 | 4766 ft | 280 kts | 282° |
| 2026-04-20 20:27 | 36.67769 | -119.87814 | 4492 ft | 278 kts | 282° |
| 2026-04-20 20:27 | 36.68289 | -119.90141 | 4209 ft | 278 kts | 282° |
| 2026-04-20 20:27 | 36.68794 | -119.92432 | 3786 ft | 279 kts | 282° |
| 2026-04-20 20:28 | 36.69297 | -119.94739 | 3296 ft | 275 kts | 282° |
| 2026-04-20 20:28 | 36.70045 | -119.96958 | 2870 ft | 281 kts | 303° |
| 2026-04-20 20:28 | 36.71325 | -119.98800 | 2528 ft | 282 kts | 311° |
| 2026-04-20 20:28 | 36.72697 | -120.00563 | 2202 ft | 284 kts | 311° |
| 2026-04-20 20:29 | 36.74071 | -120.02289 | 1999 ft | 276 kts | 313° |
| 2026-04-20 20:29 | 36.75391 | -120.03956 | 1978 ft | 262 kts | 312° |
| 2026-04-20 20:29 | 36.76633 | -120.05531 | 1992 ft | 247 kts | 311° |
| 2026-04-20 20:29 | 36.77823 | -120.07002 | 1983 ft | 234 kts | 312° |
| 2026-04-20 20:30 | 36.78969 | -120.08352 | 1987 ft | 220 kts | 315° |
| 2026-04-20 20:30 | 36.80182 | -120.09446 | 1970 ft | 214 kts | 336° |
| 2026-04-20 20:30 | 36.81616 | -120.09767 | 2028 ft | 213 kts | 6° |
| 2026-04-20 20:30 | 36.83004 | -120.09207 | 1985 ft | 211 kts | 37° |
| 2026-04-20 20:31 | 36.83979 | -120.07940 | 1982 ft | 198 kts | 65° |
| 2026-04-20 20:31 | 36.84455 | -120.06371 | 1990 ft | 190 kts | 78° |
| 2026-04-20 20:31 | 36.84859 | -120.04782 | 1995 ft | 199 kts | 77° |
| 2026-04-20 20:31 | 36.85284 | -120.03114 | 1934 ft | 204 kts | 77° |
| 2026-04-20 20:32 | 36.85718 | -120.01421 | 1746 ft | 205 kts | 78° |
| 2026-04-20 20:32 | 36.86152 | -119.99728 | 1657 ft | 205 kts | 77° |
| 2026-04-20 20:32 | 36.86589 | -119.98027 | 1636 ft | 209 kts | 78° |
| 2026-04-20 20:32 | 36.87053 | -119.96210 | 1574 ft | 227 kts | 77° |
| 2026-04-20 20:33 | 36.87539 | -119.94311 | 1555 ft | 230 kts | 76° |
| 2026-04-20 20:33 | 36.87993 | -119.92385 | 1533 ft | 230 kts | 86° |
| 2026-04-20 20:33 | 36.87960 | -119.90457 | 1499 ft | 214 kts | 107° |
| 2026-04-20 20:33 | 36.87409 | -119.88813 | 1447 ft | 200 kts | 128° |
| 2026-04-20 20:34 | 36.86627 | -119.87444 | 1454 ft | 188 kts | 130° |
| 2026-04-20 20:34 | 36.85882 | -119.86139 | 1455 ft | 183 kts | 130° |
| 2026-04-20 20:34 | 36.85147 | -119.84852 | 1448 ft | 181 kts | 131° |
| 2026-04-20 20:34 | 36.84462 | -119.83643 | 1477 ft | 161 kts | 130° |
| 2026-04-20 20:35 | 36.83847 | -119.82556 | 1434 ft | 145 kts | 126° |
| 2026-04-20 20:35 | 36.83294 | -119.81585 | 1457 ft | 137 kts | 127° |
| 2026-04-20 20:35 | 36.82747 | -119.80629 | 1440 ft | 135 kts | 129° |
| 2026-04-20 20:35 | 36.82201 | -119.79674 | 1447 ft | 135 kts | 129° |
| 2026-04-20 20:36 | 36.81659 | -119.78728 | 1458 ft | 133 kts | 131° |
| 2026-04-20 20:36 | 36.81114 | -119.77775 | 1241 ft | 133 kts | 129° |
| 2026-04-20 20:36 | 36.80586 | -119.76826 | 1123 ft | 135 kts | 128° |
| 2026-04-20 20:36 | 36.80043 | -119.75887 | 925 ft | 133 kts | 128° |
| 2026-04-20 20:37 | 36.79502 | -119.74938 | 752 ft | 136 kts | 127° |
| 2026-04-20 20:37 | 36.78958 | -119.73987 | 525 ft | 134 kts | 126° |
| 2026-04-20 20:37 | 36.78420 | -119.73041 | 391 ft | 134 kts | 128° |
| 2026-04-20 20:37 | 36.77923 | -119.72180 | 336 ft | 102 kts | 125° |
| 2026-04-20 20:38 | 36.77615 | -119.71637 | 345 ft | 52 kts | 125° |
| 2026-04-20 20:38 | 36.77472 | -119.71390 | 350 ft | 29 kts | 126° |
| 2026-04-20 20:38 | 36.77372 | -119.71238 | 335 ft | 13 kts | 158° |
| 2026-04-20 20:38 | 36.77327 | -119.71277 | 340 ft | 9 kts | 262° |
| 2026-04-20 20:39 | 36.77329 | -119.71367 | 339 ft | 12 kts | 275° |
| 2026-04-20 20:39 | 36.77340 | -119.71481 | 339 ft | 15 kts | 277° |
| 2026-04-20 20:39 | 36.77276 | -119.71562 | 338 ft | 14 kts | 219° |
| 2026-04-20 20:39 | 36.77198 | -119.71643 | 340 ft | 14 kts | 234° |
| 2026-04-20 20:40 | 36.77227 | -119.71726 | 339 ft | 8 kts | 301° |
| 2026-04-20 20:40 | 36.77222 | -119.71768 | 337 ft | 2 kts | 225° |
| 2026-04-20 20:40 | 36.77203 | -119.71793 | 340 ft | 3 kts | 230° |
| 2026-04-20 20:40 | 36.77202 | -119.71795 | 339 ft | 0 kts | 230° |